Tel Aviv, Israel

9:36 AM IDT on July 01, 2015 (GMT +0300)
Ben-Shemen | | Change Station
CLOSE
Current Station
Personal Weather Station
Location: Moshav 56 Maivar, SHFELA
Elevation: 197 ft
Nearby Weather Stations

Elev 197 ft 31.95 °N, 34.92 °E | Updated 2 minutes ago

Clear
Clear
83.3 °F
Feels Like 87 °F
N
3.8
Wind Variable Wind from North
Gusts 8.3 mph

Today
High -- | Low -- °F
--% Chance of Precip.
Yesterday
High -- | Low -- °F
Precip. -- in
5:37 AM 7:50 PM
Waxing Gibbous, 99% visible
Pressure 29.95 in
Visibility -9999.0 miles
Clouds
Heat Index 87 °F
Dew Point 69 °F
Humidity 63%
Rainfall 0.00 in
Snow Depth Not available.
UV Not available.
Pollen Not available.
Air Quality Not available.
Flu Activity Not available.
METAR LLBG 010620Z 35009KT CAVOK 26/17 Q1014 NOSIG

More Conditions Fewer Conditions

Pressure 29.95 in
Visibility -9999.0 miles
Clouds
Heat Index 87 °F
Dew Point 69 °F
Humidity 63%
Rainfall 0.00 in
Snow Depth Not available.
UV Not available.
Pollen Not available.
Air Quality Not available.
Flu Activity Not available.
METAR LLBG 010620Z 35009KT CAVOK 26/17 Q1014 NOSIG

More Conditions Fewer Conditions

10-Day Weather Forecast

×

Almanac

Astronomy

Jul. 01, 2015 Rise Set
Actual Time
Civil Twilight
Nautical Twilight
Astronomical Twilight
Moon
Length of Visible Light
Length of Day
Tomorrow will be .
, % of the Moon is Illuminated

Today's Extremes

Country Highs Country Lows

Community

WunderPhotos

Upload Photos

1,834,158 photos uploaded!

WunderBlogs® & News

Nearby

Air Quality

  Air Quality AQ Index Pollutant
Not available.

Snow Depth

Station Depth Elevation

Earthquake Activity

City Distance Mag. Time & Date
Minimum magnitude displayed is 2.5.

Coastal Water Temperatures

Place Temperature

Stations

Nearby Weather Stations

Station Location Temp. Windchill Dew Point Humidity Wind Precip. Elev Updated Type